Marlin Topaz — V7ML4 — position and weather

sailwx.info

Track history (hours):
 
Tides and Currents Weather Stations Pressure Air Temp Water Temp Dewpoint Dewpoint Depression Visibility Wind Speed Wind Dir Waves Ship Positions

Marlin Topaz

Last reported at 2014-Jul-23 00:05 UTC. Time now 2014-Jul-23 01:15 UTC.
Position N 55°46' E 020°10'.

Length 183 m; draft 7.4 m.

Type: Ship (hazmat cat B). MMSI: 538002869.

Date/timePositionNaut miles runAvg speedWind from/ knotsBaromVisibWave heightAir tempDewpointWater temp
2014-Jul-23 00:05N 55°46' E 020°10'712.3
2014-Jul-22 23:33N 55°46' E 019°58'1212.1
2014-Jul-22 22:33N 55°47' E 019°37'1211.7
2014-Jul-22 21:33N 55°48' E 019°16'1111.5
2014-Jul-22 20:33N 55°49' E 018°56'1211.5
2014-Jul-22 19:33N 55°50' E 018°35'1212.1
2014-Jul-22 18:33N 55°51' E 018°14'1212.1
2014-Jul-22 17:33N 55°52' E 017°52'1212.1
2014-Jul-22 16:33N 55°53' E 017°31'1111.0
2014-Jul-22 15:33N 55°50' E 017°12'1010.0
2014-Jul-22 14:33N 55°48' E 016°55'2311.3
2014-Jul-22 12:33N 55°43' E 016°15'1211.8
2014-Jul-22 11:33N 55°40' E 015°55'1211.8
2014-Jul-22 10:33N 55°38' E 015°35'1211.9
2014-Jul-22 09:33N 55°33' E 015°15'1212.0
2014-Jul-22 08:33N 55°28' E 014°56'1212.0
2014-Jul-22 07:33N 55°22' E 014°37'1212.0
2014-Jul-22 06:33N 55°13' E 014°25'1212.3
2014-Jul-22 05:33N 55°03' E 014°12'1111.5
2014-Jul-22 04:33N 54°58' E 013°54'1212.3
2014-Jul-22 03:33N 54°54' E 013°34'1212.3
2014-Jul-22 02:33N 54°51' E 013°13'1212.2
2014-Jul-22 01:33N 54°46' E 012°53'1211.8
2014-Jul-22 00:33N 54°41' E 012°35'1211.8
2014-Jul-21 23:33N 54°35' E 012°18'1111.0
2014-Jul-21 22:33N 54°25' E 012°09'1212.4
2014-Jul-21 21:33N 54°25' E 011°48'1212.4
2014-Jul-21 20:33N 54°30' E 011°29'312.2
2014-Jul-21 20:18N 54°31' E 011°24'912.0
2014-Jul-21 19:33N 54°35' E 011°10'12810.5
2014-Jul-21 07:25N 56°43' E 011°02'1112.2
2014-Jul-21 06:33N 56°52' E 010°53'1312.6
2014-Jul-21 05:33N 57°04' E 010°48'1212.3
2014-Jul-21 04:33N 57°16' E 010°43'1312.6
2014-Jul-21 03:33N 57°29' E 010°43'1212.5
2014-Jul-21 02:33N 57°41' E 010°46'8 7.8
2014-Jul-21 01:33N 57°48' E 010°37'1212.2
2014-Jul-21 00:33N 57°49' E 010°14'1212.1
2014-Jul-20 23:32N 57°48' E 009°51'18210.5
2014-Jul-20 06:10N 55°26' E 006°24'812.5
2014-Jul-20 05:33N 55°19' E 006°17'1212.5
2014-Jul-20 04:33N 55°09' E 006°06'5812.9
2014-Jul-20 00:05N 54°19' E 005°15'712.8
2014-Jul-19 23:33N 54°14' E 005°07'1312.8
2014-Jul-19 22:33N 54°05' E 004°52'1312.9
2014-Jul-19 21:33N 53°56' E 004°37'8912.2
2014-Jul-19 14:17N 52°44' E 003°10'810.8
2014-Jul-19 13:32N 52°36' E 003°07'3110.2
2014-Jul-19 10:28N 52°08' E 003°32'1212.7
2014-Jul-19 09:33N 52°04' E 003°50'1111.1
2014-Jul-19 08:33N 51°59' E 004°05'5 5.2
2014-Jul-19 07:33N 51°56' E 004°12'  
2014-Jul-17 00:24N 51°55' E 004°12'3 3.7
2014-Jul-16 23:33N 51°58' E 004°08'10 9.7
2014-Jul-16 22:33N 52°00' E 003°53'10 9.6
2014-Jul-16 21:29N 51°58' E 003°37'7 6.7
2014-Jul-16 20:24N 51°54' E 003°27'0 0.0
2014-Jul-16 19:33N 51°54' E 003°27'0 0.0
2014-Jul-16 18:30N 51°54' E 003°27'0 0.0
2014-Jul-16 17:30N 51°54' E 003°27'0 0.0
2014-Jul-16 16:33N 51°54' E 003°27'0 0.0
2014-Jul-16 15:30N 51°54' E 003°27'0 0.2
2014-Jul-16 14:30N 51°54' E 003°27'0 0.1
2014-Jul-16 13:30N 51°54' E 003°27'0 0.0
2014-Jul-16 10:15N 51°54' E 003°27'35 3.0
2014-Jul-15 22:27N 51°43' E 002°33'1010.9
2014-Jul-15 21:34N 51°36' E 002°22'1211.5
2014-Jul-15 20:33N 51°28' E 002°09'1212.1
2014-Jul-15 19:33N 51°16' E 002°06'1312.5
2014-Jul-15 18:33N 51°09' E 001°49'1313.2
2014-Jul-15 17:33N 51°00' E 001°33'1313.5
2014-Jul-15 16:33N 50°48' E 001°23'1413.2
2014-Jul-15 15:30N 50°37' E 001°11'1213.0
2014-Jul-15 14:34N 50°29' E 000°55'1913.2
2014-Jul-15 13:09N 50°24' E 000°28'3114.7
2014-Jul-15 11:04N 50°15' W 000°18'  
Track history (hours):
 
Tides and Currents Weather Stations Pressure Air Temp Water Temp Dewpoint Dewpoint Depression Visibility Wind Speed Wind Dir Waves Ship Positions

Marlin Topaz

Last reported at 2014-Jul-23 00:05 UTC. Time now 2014-Jul-23 01:15 UTC.
Position N 55°46' E 020°10'.

Length 183 m; draft 7.4 m.

Type: Ship (hazmat cat B). MMSI: 538002869.

Date/timePositionNaut miles runAvg speedWind from/ knotsBaromVisibWave heightAir tempDewpointWater temp
2014-Jul-23 00:05N 55°46' E 020°10'712.3
2014-Jul-22 23:33N 55°46' E 019°58'1212.1
2014-Jul-22 22:33N 55°47' E 019°37'1211.7
2014-Jul-22 21:33N 55°48' E 019°16'1111.5
2014-Jul-22 20:33N 55°49' E 018°56'1211.5
2014-Jul-22 19:33N 55°50' E 018°35'1212.1
2014-Jul-22 18:33N 55°51' E 018°14'1212.1
2014-Jul-22 17:33N 55°52' E 017°52'1212.1
2014-Jul-22 16:33N 55°53' E 017°31'1111.0
2014-Jul-22 15:33N 55°50' E 017°12'1010.0
2014-Jul-22 14:33N 55°48' E 016°55'2311.3
2014-Jul-22 12:33N 55°43' E 016°15'1211.8
2014-Jul-22 11:33N 55°40' E 015°55'1211.8
2014-Jul-22 10:33N 55°38' E 015°35'1211.9
2014-Jul-22 09:33N 55°33' E 015°15'1212.0
2014-Jul-22 08:33N 55°28' E 014°56'1212.0
2014-Jul-22 07:33N 55°22' E 014°37'1212.0
2014-Jul-22 06:33N 55°13' E 014°25'1212.3
2014-Jul-22 05:33N 55°03' E 014°12'1111.5
2014-Jul-22 04:33N 54°58' E 013°54'1212.3
2014-Jul-22 03:33N 54°54' E 013°34'1212.3
2014-Jul-22 02:33N 54°51' E 013°13'1212.2
2014-Jul-22 01:33N 54°46' E 012°53'1211.8
2014-Jul-22 00:33N 54°41' E 012°35'1211.8
2014-Jul-21 23:33N 54°35' E 012°18'1111.0
2014-Jul-21 22:33N 54°25' E 012°09'1212.4
2014-Jul-21 21:33N 54°25' E 011°48'1212.4
2014-Jul-21 20:33N 54°30' E 011°29'312.2
2014-Jul-21 20:18N 54°31' E 011°24'912.0
2014-Jul-21 19:33N 54°35' E 011°10'12810.5
2014-Jul-21 07:25N 56°43' E 011°02'1112.2
2014-Jul-21 06:33N 56°52' E 010°53'1312.6
2014-Jul-21 05:33N 57°04' E 010°48'1212.3
2014-Jul-21 04:33N 57°16' E 010°43'1312.6
2014-Jul-21 03:33N 57°29' E 010°43'1212.5
2014-Jul-21 02:33N 57°41' E 010°46'8 7.8
2014-Jul-21 01:33N 57°48' E 010°37'1212.2
2014-Jul-21 00:33N 57°49' E 010°14'1212.1
2014-Jul-20 23:32N 57°48' E 009°51'18210.5
2014-Jul-20 06:10N 55°26' E 006°24'812.5
2014-Jul-20 05:33N 55°19' E 006°17'1212.5
2014-Jul-20 04:33N 55°09' E 006°06'5812.9
2014-Jul-20 00:05N 54°19' E 005°15'712.8
2014-Jul-19 23:33N 54°14' E 005°07'1312.8
2014-Jul-19 22:33N 54°05' E 004°52'1312.9
2014-Jul-19 21:33N 53°56' E 004°37'8912.2
2014-Jul-19 14:17N 52°44' E 003°10'810.8
2014-Jul-19 13:32N 52°36' E 003°07'3110.2
2014-Jul-19 10:28N 52°08' E 003°32'1212.7
2014-Jul-19 09:33N 52°04' E 003°50'1111.1
2014-Jul-19 08:33N 51°59' E 004°05'5 5.2
2014-Jul-19 07:33N 51°56' E 004°12'  
2014-Jul-17 00:24N 51°55' E 004°12'3 3.7
2014-Jul-16 23:33N 51°58' E 004°08'10 9.7
2014-Jul-16 22:33N 52°00' E 003°53'10 9.6
2014-Jul-16 21:29N 51°58' E 003°37'7 6.7
2014-Jul-16 20:24N 51°54' E 003°27'0 0.0
2014-Jul-16 19:33N 51°54' E 003°27'0 0.0
2014-Jul-16 18:30N 51°54' E 003°27'0 0.0
2014-Jul-16 17:30N 51°54' E 003°27'0 0.0
2014-Jul-16 16:33N 51°54' E 003°27'0 0.0
2014-Jul-16 15:30N 51°54' E 003°27'0 0.2
2014-Jul-16 14:30N 51°54' E 003°27'0 0.1
2014-Jul-16 13:30N 51°54' E 003°27'0 0.0
2014-Jul-16 10:15N 51°54' E 003°27'35 3.0
2014-Jul-15 22:27N 51°43' E 002°33'1010.9
2014-Jul-15 21:34N 51°36' E 002°22'1211.5
2014-Jul-15 20:33N 51°28' E 002°09'1212.1
2014-Jul-15 19:33N 51°16' E 002°06'1312.5
2014-Jul-15 18:33N 51°09' E 001°49'1313.2
2014-Jul-15 17:33N 51°00' E 001°33'1313.5
2014-Jul-15 16:33N 50°48' E 001°23'1413.2
2014-Jul-15 15:30N 50°37' E 001°11'1213.0
2014-Jul-15 14:34N 50°29' E 000°55'1913.2
2014-Jul-15 13:09N 50°24' E 000°28'3114.7
2014-Jul-15 11:04N 50°15' W 000°18'  

Dump ship's entire track history